Time;durP1;ratioP1;P1;durP2;ratioP2;P2;SDS_P1;SDS_P2;PMS_P1;PMS_P2;Temp;Humidity;BMP_temperature;BMP_pressure;BME280_temperature;BME280_humidity;BME280_pressure;Samples;Min_cycle;Max_cycle;Signal;HPM_P1;HPM_P2
2021/03/28 00:02:21;;;;;;;17.23;4.07;;;;;;;;;;5115203;27;20046;-84
2021/03/28 00:04:51;;;;;;;20.00;4.10;;;;;;;;;;5114975;27;20050;-83
2021/03/28 00:07:17;;;;;;;14.23;3.70;;;;;;;;;;5115463;27;20116;-83
2021/03/28 00:09:45;;;;;;;12.73;3.55;;;;;;;;;;5115261;27;20037;-83
2021/03/28 00:12:24;;;;;;;13.25;3.65;;;;;;;;;;5098176;27;20047;-83
2021/03/28 00:14:51;;;;;;;17.27;3.67;;;;;;;;;;5133346;27;20080;-83
2021/03/28 00:17:20;;;;;;;14.93;3.53;;;;;;;;;;5080873;27;20508;-83
2021/03/28 00:19:55;;;;;;;15.98;4.03;;;;;;;;;;5133330;27;20398;-83
2021/03/28 00:22:23;;;;;;;12.75;4.15;;;;;;;;;;5114994;27;20127;-83
2021/03/28 00:24:51;;;;;;;12.63;3.22;;;;;;;;;;5098123;27;20039;-83
2021/03/28 00:27:18;;;;;;;11.93;3.28;;;;;;;;;;5098001;27;20035;-83
2021/03/28 00:29:52;;;;;;;15.98;3.58;;;;;;;;;;5115080;28;20038;-83
2021/03/28 00:32:22;;;;;;;11.52;3.47;;;;;;;;;;5114996;28;20035;-83
2021/03/28 00:34:52;;;;;;;11.05;3.30;;;;;;;;;;5115020;27;20039;-86
2021/03/28 00:37:20;;;;;;;18.08;3.95;;;;;;;;;;5098036;27;20057;-83
2021/03/28 00:39:49;;;;;;;11.57;3.65;;;;;;;;;;5114817;28;20054;-82
2021/03/28 00:42:34;;;;;;;14.75;3.63;;;;;;;;;;5114855;28;20110;-82
2021/03/28 00:45:19;;;;;;;14.50;3.28;;;;;;;;;;5132774;28;20483;-83
2021/03/28 00:47:46;;;;;;;14.45;4.03;;;;;;;;;;5133081;28;20114;-82
2021/03/28 00:50:21;;;;;;;15.98;4.13;;;;;;;;;;5114685;28;20043;-83
2021/03/28 00:52:53;;;;;;;10.77;3.45;;;;;;;;;;5114463;28;20051;-83
2021/03/28 00:55:20;;;;;;;13.95;3.25;;;;;;;;;;5132987;28;20039;-83
2021/03/28 00:57:47;;;;;;;15.65;4.18;;;;;;;;;;5097884;28;20051;-82
2021/03/28 01:00:13;;;;;;;18.45;4.32;;;;;;;;;;5114623;28;20039;-83
2021/03/28 01:02:43;;;;;;;13.10;3.30;;;;;;;;;;5132915;28;20042;-82
2021/03/28 01:05:09;;;;;;;14.38;3.85;;;;;;;;;;5114858;28;20035;-82
2021/03/28 01:07:40;;;;;;;16.02;3.55;;;;;;;;;;5114458;28;20046;-83
2021/03/28 01:10:24;;;;;;;18.20;3.50;;;;;;;;;;5132826;28;20606;-83
2021/03/28 01:13:09;;;;;;;13.90;3.70;;;;;;;;;;5132974;28;20039;-83
2021/03/28 01:15:38;;;;;;;17.45;3.75;;;;;;;;;;5132685;28;20072;-83
2021/03/28 01:18:07;;;;;;;13.43;3.47;;;;;;;;;;5132753;28;20462;-83
2021/03/28 01:20:34;;;;;;;19.75;4.13;;;;;;;;;;5097593;28;20035;-83
2021/03/28 01:23:05;;;;;;;14.45;4.32;;;;;;;;;;5132681;28;20092;-83
2021/03/28 01:25:35;;;;;;;15.18;3.65;;;;;;;;;;5114437;28;20039;-83
2021/03/28 01:28:15;;;;;;;19.80;4.28;;;;;;;;;;5115339;27;20036;-83
2021/03/28 01:30:43;;;;;;;13.00;3.53;;;;;;;;;;5136470;27;20505;-82
2021/03/28 01:33:12;;;;;;;16.48;3.80;;;;;;;;;;5118508;27;20486;-82
2021/03/28 01:35:45;;;;;;;22.98;4.47;;;;;;;;;;5118304;27;20035;-82
2021/03/28 01:38:12;;;;;;;14.55;3.55;;;;;;;;;;5101221;27;20051;-82
2021/03/28 01:40:38;;;;;;;14.15;4.13;;;;;;;;;;5118333;27;20043;-83
2021/03/28 01:43:04;;;;;;;19.85;4.38;;;;;;;;;;5136288;27;20067;-82
2021/03/28 01:45:49;;;;;;;14.27;4.20;;;;;;;;;;5135967;27;20517;-83
2021/03/28 01:48:21;;;;;;;16.25;3.60;;;;;;;;;;5117821;27;20458;-82
2021/03/28 01:50:53;;;;;;;19.95;4.50;;;;;;;;;;5136067;27;20035;-83
2021/03/28 01:53:24;;;;;;;17.15;4.00;;;;;;;;;;5136109;27;20047;-82
2021/03/28 01:56:01;;;;;;;18.85;4.28;;;;;;;;;;5135991;27;20390;-83
2021/03/28 01:58:46;;;;;;;15.52;3.55;;;;;;;;;;5117838;27;20455;-83
2021/03/28 02:01:22;;;;;;;13.20;3.40;;;;;;;;;;5136024;27;20042;-83
2021/03/28 02:03:56;;;;;;;20.38;3.95;;;;;;;;;;5117706;27;20036;-83
2021/03/28 02:06:26;;;;;;;16.02;3.63;;;;;;;;;;5135773;27;20043;-83
2021/03/28 02:08:52;;;;;;;16.23;6.65;;;;;;;;;;5117653;27;20028;-83
2021/03/28 02:11:27;;;;;;;16.00;3.95;;;;;;;;;;5117246;27;20096;-83
2021/03/28 02:14:05;;;;;;;15.63;3.83;;;;;;;;;;5117408;27;20126;-83
2021/03/28 02:16:51;;;;;;;19.70;4.80;;;;;;;;;;5135670;27;20079;-83
2021/03/28 02:19:18;;;;;;;21.52;3.58;;;;;;;;;;5100696;27;20039;-81
2021/03/28 02:21:54;;;;;;;17.00;4.32;;;;;;;;;;5117490;27;20118;-83
2021/03/28 02:24:39;;;;;;;12.35;3.63;;;;;;;;;;5100169;27;20047;-83
2021/03/28 02:27:15;;;;;;;15.00;3.53;;;;;;;;;;5117160;27;20036;-83
2021/03/28 02:29:42;;;;;;;13.18;3.42;;;;;;;;;;5135362;27;20649;-83
2021/03/28 02:32:27;;;;;;;16.30;3.88;;;;;;;;;;5099854;27;20056;-83
2021/03/28 02:34:59;;;;;;;14.90;3.90;;;;;;;;;;5135229;27;20039;-83
2021/03/28 02:37:43;;;;;;;13.63;3.53;;;;;;;;;;5135301;27;20180;-81
2021/03/28 02:40:11;;;;;;;12.52;4.03;;;;;;;;;;5134929;27;20494;-83
2021/03/28 02:42:58;;;;;;;22.63;4.60;;;;;;;;;;5116824;27;20490;-83
2021/03/28 02:45:24;;;;;;;15.73;3.90;;;;;;;;;;5099905;27;20340;-83
2021/03/28 02:48:00;;;;;;;20.48;4.13;;;;;;;;;;5099808;27;20482;-83
2021/03/28 02:50:45;;;;;;;15.60;4.85;;;;;;;;;;5099868;27;20031;-83
2021/03/28 02:53:18;;;;;;;15.40;4.20;;;;;;;;;;5116505;27;20138;-83
2021/03/28 02:55:59;;;;;;;16.10;3.88;;;;;;;;;;5100184;27;20054;-83
2021/03/28 02:58:28;;;;;;;10.15;3.38;;;;;;;;;;5116736;27;20035;-82
2021/03/28 03:01:13;;;;;;;12.73;3.65;;;;;;;;;;5116717;27;20050;-82
2021/03/28 03:03:57;;;;;;;15.60;4.47;;;;;;;;;;5134732;27;20470;-83
2021/03/28 03:06:26;;;;;;;14.85;3.55;;;;;;;;;;5134705;27;20069;-83
2021/03/28 03:09:12;;;;;;;12.95;3.72;;;;;;;;;;5134763;27;20035;-81
2021/03/28 03:11:51;;;;;;;11.57;3.30;;;;;;;;;;5116021;27;20364;-82
2021/03/28 03:14:36;;;;;;;15.02;3.78;;;;;;;;;;5116483;27;20035;-83
2021/03/28 03:17:02;;;;;;;19.15;3.78;;;;;;;;;;5134473;27;20038;-83
2021/03/28 03:19:46;;;;;;;11.07;3.35;;;;;;;;;;5134520;27;20420;-84
2021/03/28 03:22:36;;;;;;;13.90;3.72;;;;;;;;;;5115931;27;20592;-82
2021/03/28 03:25:02;;;;;;;13.75;3.80;;;;;;;;;;5128530;27;20079;-83
2021/03/28 03:27:34;;;;;;;16.02;4.40;;;;;;;;;;5134328;27;20119;-83
2021/03/28 03:30:12;;;;;;;14.48;5.22;;;;;;;;;;5116121;27;20038;-83
2021/03/28 03:32:55;;;;;;;17.05;3.67;;;;;;;;;;5115859;27;20031;-83
2021/03/28 03:35:31;;;;;;;14.25;3.95;;;;;;;;;;5116106;27;20059;-82
2021/03/28 03:38:08;;;;;;;13.30;3.97;;;;;;;;;;5098919;27;20087;-82
2021/03/28 03:40:51;;;;;;;16.02;3.90;;;;;;;;;;5082271;27;20486;-81
2021/03/28 03:43:35;;;;;;;14.52;3.72;;;;;;;;;;5134132;27;20390;-83
2021/03/28 03:46:02;;;;;;;13.05;3.47;;;;;;;;;;5133719;27;20455;-81
2021/03/28 03:48:42;;;;;;;16.25;5.13;;;;;;;;;;5133955;27;20087;-82
2021/03/28 03:51:13;;;;;;;11.75;4.25;;;;;;;;;;5114951;27;20042;-82
2021/03/28 03:53:57;;;;;;;15.02;3.63;;;;;;;;;;5098581;27;20550;-81
2021/03/28 03:56:40;;;;;;;13.57;4.55;;;;;;;;;;5133706;27;20084;-81
2021/03/28 03:59:26;;;;;;;12.23;3.67;;;;;;;;;;5133718;27;20039;-82
2021/03/28 04:02:11;;;;;;;16.30;4.07;;;;;;;;;;5126119;27;20046;-81
2021/03/28 04:04:51;;;;;;;15.50;3.80;;;;;;;;;;5133583;27;20046;-81
2021/03/28 04:07:20;;;;;;;13.98;4.28;;;;;;;;;;5098603;27;20538;-82
2021/03/28 04:09:46;;;;;;;18.48;4.32;;;;;;;;;;5133393;27;20039;-82
2021/03/28 04:12:15;;;;;;;14.85;3.92;;;;;;;;;;5133392;27;20039;-81
2021/03/28 04:14:44;;;;;;;14.10;4.18;;;;;;;;;;5133358;27;20509;-82
2021/03/28 04:17:29;;;;;;;12.73;4.90;;;;;;;;;;5133411;27;20035;-83
2021/03/28 04:20:07;;;;;;;11.57;4.45;;;;;;;;;;5115098;27;20475;-83
2021/03/28 04:22:39;;;;;;;15.55;4.40;;;;;;;;;;5115051;27;20599;-82
2021/03/28 04:25:05;;;;;;;11.70;4.22;;;;;;;;;;5133283;27;20031;-81
2021/03/28 04:27:40;;;;;;;13.38;4.35;;;;;;;;;;5115087;27;20050;-82
2021/03/28 04:30:07;;;;;;;16.80;4.43;;;;;;;;;;5133148;27;20039;-82
2021/03/28 04:32:36;;;;;;;10.68;4.25;;;;;;;;;;5115045;27;20039;-82
2021/03/28 04:35:38;;;;;;;13.32;4.85;;;;;;;;;;5133055;27;20039;-81
2021/03/28 04:38:19;;;;;;;11.60;4.55;;;;;;;;;;5090285;28;20040;-82
2021/03/28 04:41:04;;;;;;;13.35;3.95;;;;;;;;;;5111022;28;20096;-82
2021/03/28 04:43:34;;;;;;;17.35;4.47;;;;;;;;;;5133003;28;20062;-82
2021/03/28 04:46:19;;;;;;;13.80;4.22;;;;;;;;;;5097928;28;20039;-82
2021/03/28 04:49:04;;;;;;;12.55;5.35;;;;;;;;;;5133080;28;20035;-82
2021/03/28 04:51:36;;;;;;;14.90;4.15;;;;;;;;;;5114494;28;20504;-82
2021/03/28 04:54:07;;;;;;;17.65;5.13;;;;;;;;;;5132959;28;20542;-82
2021/03/28 04:56:35;;;;;;;;;;;;;;;;;;5115575;28;20039;-82
2021/03/28 04:59:01;;;;;;;14.45;5.57;;;;;;;;;;5133040;28;19927;-82
2021/03/28 05:01:42;;;;;;;21.02;5.03;;;;;;;;;;5132992;27;20088;-83
2021/03/28 05:04:20;;;;;;;16.55;4.70;;;;;;;;;;5136996;27;20035;-82
2021/03/28 05:07:05;;;;;;;20.17;5.28;;;;;;;;;;5118687;27;20066;-82
2021/03/28 05:09:39;;;;;;;17.20;5.32;;;;;;;;;;5118595;27;20047;-84
2021/03/28 05:12:23;;;;;;;16.92;4.80;;;;;;;;;;5137069;27;20044;-84
2021/03/28 05:15:13;;;;;;;18.45;5.18;;;;;;;;;;5136683;27;20474;-84
2021/03/28 05:17:53;;;;;;;14.73;4.57;;;;;;;;;;5117003;27;20134;-83
2021/03/28 05:20:38;;;;;;;17.85;4.95;;;;;;;;;;5118694;27;20235;-82
2021/03/28 05:23:23;;;;;;;16.90;5.25;;;;;;;;;;5136613;27;20494;-81
2021/03/28 05:25:57;;;;;;;16.98;4.40;;;;;;;;;;5136592;27;20113;-82
2021/03/28 05:28:42;;;;;;;13.90;4.90;;;;;;;;;;5136877;27;20043;-82
2021/03/28 05:31:22;;;;;;;16.75;5.65;;;;;;;;;;5118073;27;20043;-81
2021/03/28 05:33:48;;;;;;;17.35;4.82;;;;;;;;;;5118408;27;20379;-82
2021/03/28 05:36:32;;;;;;;17.65;5.40;;;;;;;;;;5136433;27;20140;-82
2021/03/28 05:39:03;;;;;;;14.13;4.47;;;;;;;;;;5136503;27;20448;-82
2021/03/28 05:41:38;;;;;;;15.32;4.88;;;;;;;;;;5136509;27;20035;-81
2021/03/28 05:44:23;;;;;;;17.45;4.70;;;;;;;;;;5117992;27;20027;-82
2021/03/28 05:47:06;;;;;;;19.85;5.13;;;;;;;;;;5136324;27;20539;-80
2021/03/28 05:49:35;;;;;;;15.65;5.03;;;;;;;;;;5118183;27;20035;-81
2021/03/28 05:52:04;;;;;;;19.00;5.80;;;;;;;;;;5136081;27;20047;-81
2021/03/28 05:54:40;;;;;;;16.88;5.30;;;;;;;;;;5117714;27;20031;-80
2021/03/28 05:57:25;;;;;;;12.85;4.43;;;;;;;;;;5135990;27;20419;-82
2021/03/28 06:00:09;;;;;;;23.50;5.05;;;;;;;;;;5135937;27;20039;-81
2021/03/28 06:02:53;;;;;;;14.55;5.10;;;;;;;;;;5117474;27;20471;-83
2021/03/28 06:05:38;;;;;;;14.02;4.75;;;;;;;;;;5100712;27;20043;-84
2021/03/28 06:08:19;;;;;;;15.88;4.60;;;;;;;;;;5135892;27;20390;-81
2021/03/28 06:11:04;;;;;;;14.57;4.68;;;;;;;;;;5135652;27;20086;-81
2021/03/28 06:13:36;;;;;;;18.30;5.35;;;;;;;;;;5135082;27;20461;-81
2021/03/28 06:16:09;;;;;;;14.63;4.72;;;;;;;;;;5135690;27;20046;-82
2021/03/28 06:18:38;;;;;;;14.48;4.78;;;;;;;;;;5117276;27;20062;-81
2021/03/28 06:21:08;;;;;;;17.15;4.30;;;;;;;;;;5117393;27;20058;-82
2021/03/28 06:23:49;;;;;;;15.77;4.50;;;;;;;;;;5117668;27;20045;-81
2021/03/28 06:26:41;;;;;;;11.77;4.28;;;;;;;;;;5117335;27;20031;-82
2021/03/28 06:29:29;;;;;;;15.07;4.63;;;;;;;;;;5119392;27;20077;-82
2021/03/28 06:31:55;;;;;;;16.27;4.53;;;;;;;;;;5135303;27;20084;-82
2021/03/28 06:34:28;;;;;;;12.45;4.15;;;;;;;;;;5135255;27;20043;-83
2021/03/28 06:36:54;;;;;;;12.18;3.83;;;;;;;;;;5117406;27;20088;-83
2021/03/28 06:39:35;;;;;;;16.75;4.07;;;;;;;;;;5135264;27;20034;-81
2021/03/28 06:42:09;;;;;;;11.43;3.47;;;;;;;;;;5117114;27;20075;-81
2021/03/28 06:44:45;;;;;;;16.67;4.05;;;;;;;;;;5135022;27;20049;-83
2021/03/28 06:47:14;;;;;;;14.18;4.22;;;;;;;;;;5135433;27;20043;-82
2021/03/28 06:49:55;;;;;;;13.63;3.60;;;;;;;;;;5135077;27;20035;-81
2021/03/28 06:52:26;;;;;;;11.60;4.05;;;;;;;;;;5135078;27;20235;-82
2021/03/28 06:55:15;;;;;;;14.38;3.70;;;;;;;;;;5116851;27;20092;-81
2021/03/28 06:57:50;;;;;;;10.45;3.20;;;;;;;;;;5117220;27;20126;-83
2021/03/28 07:00:19;;;;;;;10.50;3.03;;;;;;;;;;5116864;27;20039;-84
2021/03/28 07:03:05;;;;;;;10.02;2.88;;;;;;;;;;5116681;27;20035;-83
2021/03/28 07:05:40;;;;;;;16.08;3.15;;;;;;;;;;5116560;27;20554;-82
2021/03/28 07:08:10;;;;;;;5.65;2.50;;;;;;;;;;5134674;27;20110;-83
2021/03/28 07:10:42;;;;;;;10.32;2.42;;;;;;;;;;5116309;27;20047;-82
2021/03/28 07:13:08;;;;;;;10.65;2.90;;;;;;;;;;5134632;27;20183;-84
2021/03/28 07:15:40;;;;;;;9.90;2.70;;;;;;;;;;5134557;27;20418;-84
2021/03/28 07:18:24;;;;;;;7.78;2.67;;;;;;;;;;5116367;27;20035;-84
2021/03/28 07:21:05;;;;;;;8.88;2.85;;;;;;;;;;5116104;27;20039;-83
2021/03/28 07:23:37;;;;;;;10.25;3.13;;;;;;;;;;5100167;27;20442;-83
2021/03/28 07:26:20;;;;;;;7.32;2.35;;;;;;;;;;5115188;27;20062;-83
2021/03/28 07:29:02;;;;;;;13.98;2.53;;;;;;;;;;5116125;27;20039;-80
2021/03/28 07:31:37;;;;;;;12.82;2.72;;;;;;;;;;5115939;27;20117;-82
2021/03/28 07:34:03;;;;;;;10.75;2.50;;;;;;;;;;5116114;27;20398;-84
2021/03/28 07:36:48;;;;;;;11.63;2.70;;;;;;;;;;5134301;27;20335;-88
2021/03/28 07:39:23;;;;;;;12.05;2.97;;;;;;;;;;5134169;27;20035;-85
2021/03/28 07:42:08;;;;;;;10.13;2.40;;;;;;;;;;5099067;27;20130;-87
2021/03/28 07:44:37;;;;;;;8.35;2.70;;;;;;;;;;5115629;27;20055;-87
2021/03/28 07:47:24;;;;;;;8.50;2.08;;;;;;;;;;5116071;27;20035;-87
2021/03/28 07:49:50;;;;;;;8.45;1.98;;;;;;;;;;5099706;27;20402;-85
2021/03/28 07:52:25;;;;;;;12.35;2.65;;;;;;;;;;5115793;27;20478;-87
2021/03/28 07:55:10;;;;;;;12.98;2.60;;;;;;;;;;5115453;27;20041;-83
2021/03/28 07:57:36;;;;;;;9.23;2.25;;;;;;;;;;5115486;27;20110;-85
2021/03/28 08:00:22;;;;;;;6.30;2.20;;;;;;;;;;5133646;27;20039;-84
2021/03/28 08:03:07;;;;;;;8.05;2.50;;;;;;;;;;5133369;27;20037;-85
2021/03/28 08:05:52;;;;;;;9.00;2.60;;;;;;;;;;5115039;27;20031;-84
2021/03/28 08:08:18;;;;;;;7.85;2.47;;;;;;;;;;5133405;27;20135;-83
2021/03/28 08:11:05;;;;;;;9.45;2.20;;;;;;;;;;5114933;27;20031;-83
2021/03/28 08:13:51;;;;;;;8.98;2.33;;;;;;;;;;5125557;27;20509;-82
2021/03/28 08:16:22;;;;;;;10.48;2.22;;;;;;;;;;5111672;27;20081;-82
2021/03/28 08:18:57;;;;;;;15.70;2.50;;;;;;;;;;5115253;27;20102;-82
2021/03/28 08:21:42;;;;;;;8.82;2.53;;;;;;;;;;5114912;27;20062;-82
2021/03/28 08:24:10;;;;;;;8.57;3.05;;;;;;;;;;5133041;27;20031;-82
2021/03/28 08:26:57;;;;;;;8.57;2.38;;;;;;;;;;5133249;27;20042;-82
2021/03/28 08:29:27;;;;;;;6.53;1.70;;;;;;;;;;5114882;27;20039;-82
2021/03/28 08:32:14;;;;;;;10.40;2.60;;;;;;;;;;5114601;27;20035;-83
2021/03/28 08:34:49;;;;;;;8.40;2.28;;;;;;;;;;5112107;27;20055;-84
2021/03/28 08:37:15;;;;;;;9.63;2.17;;;;;;;;;;5132749;27;20406;-83
2021/03/28 08:39:58;;;;;;;11.85;2.75;;;;;;;;;;5133246;27;20111;-81
2021/03/28 08:42:37;;;;;;;7.88;1.95;;;;;;;;;;5114811;28;20042;-83
2021/03/28 08:45:22;;;;;;;8.50;2.38;;;;;;;;;;5097532;28;20494;-85
2021/03/28 08:48:11;;;;;;;7.68;2.00;;;;;;;;;;5132852;28;20046;-82
2021/03/28 08:50:41;;;;;;;11.70;2.40;;;;;;;;;;5113020;28;20048;-84
2021/03/28 08:53:10;;;;;;;5.80;1.80;;;;;;;;;;5114730;28;20039;-83
2021/03/28 08:55:54;;;;;;;8.82;2.05;;;;;;;;;;5132637;28;20056;-84
2021/03/28 08:58:33;;;;;;;12.40;2.75;;;;;;;;;;5080943;28;20043;-83
2021/03/28 09:01:04;;;;;;;7.38;1.90;;;;;;;;;;5097899;28;20070;-84
2021/03/28 09:03:49;;;;;;;10.95;2.00;;;;;;;;;;5111177;28;20032;-83
2021/03/28 09:06:17;;;;;;;6.95;2.10;;;;;;;;;;5126459;28;20108;-82
2021/03/28 09:09:01;;;;;;;10.75;2.03;;;;;;;;;;5111006;28;20153;-83
2021/03/28 09:11:34;;;;;;;4.97;1.73;;;;;;;;;;5113870;28;20398;-83
2021/03/28 09:14:04;;;;;;;6.25;1.67;;;;;;;;;;5124756;28;20036;-83
2021/03/28 09:16:36;;;;;;;8.40;2.00;;;;;;;;;;5087636;28;20506;-83
2021/03/28 09:19:20;;;;;;;9.93;2.25;;;;;;;;;;5125054;28;20031;-83
2021/03/28 09:21:53;;;;;;;6.53;1.60;;;;;;;;;;5112745;28;20035;-83
2021/03/28 09:24:35;;;;;;;6.78;1.77;;;;;;;;;;5094610;28;20039;-83
2021/03/28 09:27:16;;;;;;;6.10;1.73;;;;;;;;;;5113899;28;20041;-83
2021/03/28 09:30:01;;;;;;;7.70;2.70;;;;;;;;;;5132661;28;20140;-83
2021/03/28 09:32:38;;;;;;;8.40;2.45;;;;;;;;;;5132457;28;20045;-83
2021/03/28 09:35:14;;;;;;;8.07;1.75;;;;;;;;;;5097220;28;20035;-83
2021/03/28 09:38:04;;;;;;;5.43;1.73;;;;;;;;;;5092109;28;20054;-83
2021/03/28 09:40:42;;;;;;;6.45;1.80;;;;;;;;;;5109837;28;20394;-84
2021/03/28 09:43:22;;;;;;;7.53;2.25;;;;;;;;;;5111901;28;20137;-85
2021/03/28 09:45:56;;;;;;;6.32;1.50;;;;;;;;;;5093572;28;20487;-84
2021/03/28 09:48:40;;;;;;;6.47;1.52;;;;;;;;;;5110728;28;20043;-87
2021/03/28 09:51:25;;;;;;;6.20;1.80;;;;;;;;;;5114295;28;20050;-86
2021/03/28 09:54:09;;;;;;;7.13;1.80;;;;;;;;;;5115271;28;20479;-86
2021/03/28 09:56:54;;;;;;;5.70;1.90;;;;;;;;;;5115217;28;20039;-85
2021/03/28 09:59:26;;;;;;;5.82;1.65;;;;;;;;;;5112772;28;20051;-85
2021/03/28 10:01:54;;;;;;;6.88;1.90;;;;;;;;;;5113640;27;20043;-84
2021/03/28 10:04:26;;;;;;;6.85;1.92;;;;;;;;;;5114715;28;20040;-84
2021/03/28 10:06:56;;;;;;;4.55;1.65;;;;;;;;;;5096649;28;20089;-85
2021/03/28 10:09:26;;;;;;;7.00;2.03;;;;;;;;;;5079749;28;20046;-84
2021/03/28 10:12:00;;;;;;;7.75;2.10;;;;;;;;;;5079802;28;20119;-83
2021/03/28 10:14:26;;;;;;;8.25;1.90;;;;;;;;;;5096384;28;20122;-85
2021/03/28 10:16:52;;;;;;;7.20;2.00;;;;;;;;;;5114627;28;20043;-85
2021/03/28 10:19:18;;;;;;;5.10;1.77;;;;;;;;;;5114576;28;20118;-85
2021/03/28 10:21:57;;;;;;;8.55;2.40;;;;;;;;;;5096364;28;20116;-82
2021/03/28 10:24:38;;;;;;;5.53;2.00;;;;;;;;;;5113366;27;20483;-82
2021/03/28 10:27:04;;;;;;;10.00;2.30;;;;;;;;;;5105908;28;20540;-82
2021/03/28 10:29:44;;;;;;;9.00;2.33;;;;;;;;;;5114354;28;20039;-82
2021/03/28 10:32:27;;;;;;;10.43;2.20;;;;;;;;;;5096425;28;20045;-83
2021/03/28 10:34:59;;;;;;;7.05;2.10;;;;;;;;;;5079502;28;20032;-87
2021/03/28 10:37:36;;;;;;;6.18;2.20;;;;;;;;;;5114221;28;20027;-85
2021/03/28 10:40:11;;;;;;;9.98;2.47;;;;;;;;;;5079158;28;20050;-85
2021/03/28 10:42:45;;;;;;;5.00;2.35;;;;;;;;;;5114236;28;20047;-85
2021/03/28 10:45:14;;;;;;;7.00;2.45;;;;;;;;;;5092378;28;20055;-83
2021/03/28 10:47:59;;;;;;;8.40;2.80;;;;;;;;;;5092621;28;20078;-84
2021/03/28 10:50:25;;;;;;;7.13;2.13;;;;;;;;;;5092320;28;20386;-84
2021/03/28 10:52:54;;;;;;;8.25;2.42;;;;;;;;;;5093662;28;20086;-84
2021/03/28 10:55:47;;;;;;;6.70;2.25;;;;;;;;;;5093501;28;20038;-84
2021/03/28 10:58:25;;;;;;;9.50;2.40;;;;;;;;;;5070496;28;20151;-83
2021/03/28 11:01:10;;;;;;;9.63;2.63;;;;;;;;;;5092420;28;20055;-83
2021/03/28 11:03:39;;;;;;;7.65;2.33;;;;;;;;;;5093432;28;20102;-83
2021/03/28 11:06:11;;;;;;;7.30;2.30;;;;;;;;;;5093380;28;20672;-84
2021/03/28 11:08:44;;;;;;;8.50;2.13;;;;;;;;;;5092192;28;20190;-84
2021/03/28 11:11:28;;;;;;;10.23;2.35;;;;;;;;;;5092014;28;20491;-84
2021/03/28 11:14:13;;;;;;;7.60;2.45;;;;;;;;;;5093125;28;20104;-85
2021/03/28 11:16:50;;;;;;;9.13;2.65;;;;;;;;;;5091950;28;20036;-85
2021/03/28 11:19:35;;;;;;;10.32;2.40;;;;;;;;;;5075161;28;20475;-84
2021/03/28 11:22:04;;;;;;;7.65;2.50;;;;;;;;;;5093066;28;20047;-84
2021/03/28 11:24:43;;;;;;;8.15;2.38;;;;;;;;;;5097112;28;20118;-84
2021/03/28 11:27:12;;;;;;;9.63;3.13;;;;;;;;;;5112198;28;20543;-84
2021/03/28 11:30:16;;;;;;;8.02;2.78;;;;;;;;;;5111820;28;20065;-83
2021/03/28 11:32:54;;;;;;;9.63;2.70;;;;;;;;;;5070455;28;20052;-83
2021/03/28 11:35:20;;;;;;;8.15;2.58;;;;;;;;;;5088113;28;20047;-84
2021/03/28 11:38:05;;;;;;;7.90;2.65;;;;;;;;;;5113245;28;20040;-84
2021/03/28 11:40:32;;;;;;;7.50;2.38;;;;;;;;;;5113048;28;20048;-84
2021/03/28 11:43:04;;;;;;;5.78;2.33;;;;;;;;;;5111832;28;20140;-83
2021/03/28 11:45:36;;;;;;;11.38;2.55;;;;;;;;;;5112911;28;20051;-83
2021/03/28 11:48:03;;;;;;;7.90;2.57;;;;;;;;;;5113145;28;20036;-84
2021/03/28 11:50:29;;;;;;;9.23;2.75;;;;;;;;;;5111081;28;20784;-84
2021/03/28 11:53:07;;;;;;;8.30;2.63;;;;;;;;;;5111774;28;20059;-84
2021/03/28 11:55:46;;;;;;;8.68;2.80;;;;;;;;;;5112534;28;20035;-85
2021/03/28 11:58:12;;;;;;;12.07;2.83;;;;;;;;;;5112751;28;20066;-85
2021/03/28 12:00:39;;;;;;;8.30;2.80;;;;;;;;;;5111588;28;20047;-85
2021/03/28 12:03:20;;;;;;;8.38;2.55;;;;;;;;;;5112722;28;20039;-85
2021/03/28 12:05:51;;;;;;;7.43;2.63;;;;;;;;;;5111599;28;20387;-85
2021/03/28 12:08:17;;;;;;;6.90;2.92;;;;;;;;;;5111681;28;20065;-86
2021/03/28 12:10:43;;;;;;;9.02;2.42;;;;;;;;;;5111474;28;20035;-88
2021/03/28 12:13:12;;;;;;;11.55;3.20;;;;;;;;;;5094175;28;20039;-84
2021/03/28 12:15:44;;;;;;;10.85;2.75;;;;;;;;;;5113085;28;20046;-83
2021/03/28 12:18:24;;;;;;;8.95;2.53;;;;;;;;;;5103300;28;20111;-86
2021/03/28 12:20:59;;;;;;;13.50;3.05;;;;;;;;;;5091121;28;20032;-84
2021/03/28 12:23:28;;;;;;;12.93;2.95;;;;;;;;;;5090930;28;20475;-86
2021/03/28 12:26:13;;;;;;;9.43;2.90;;;;;;;;;;5093288;28;20543;-88
2021/03/28 12:28:45;;;;;;;6.82;3.08;;;;;;;;;;5112125;28;20067;-87
2021/03/28 12:31:29;;;;;;;11.18;3.25;;;;;;;;;;5111124;28;20038;-86
2021/03/28 12:34:14;;;;;;;13.18;3.33;;;;;;;;;;5111787;28;20035;-87
2021/03/28 12:36:56;;;;;;;7.38;3.30;;;;;;;;;;5111850;28;20039;-87
2021/03/28 12:39:24;;;;;;;11.77;3.13;;;;;;;;;;5110979;28;20058;-89
2021/03/28 12:42:02;;;;;;;9.55;3.90;;;;;;;;;;5111121;28;20039;-87
2021/03/28 12:44:28;;;;;;;13.40;3.42;;;;;;;;;;5115175;28;20498;-87
2021/03/28 12:46:57;;;;;;;11.80;3.47;;;;;;;;;;5132398;28;20043;-87
2021/03/28 12:49:29;;;;;;;11.32;3.70;;;;;;;;;;5132612;28;20231;-86
2021/03/28 12:52:04;;;;;;;13.65;4.03;;;;;;;;;;5132529;28;20038;-86
2021/03/28 12:54:31;;;;;;;9.15;3.47;;;;;;;;;;5114187;28;20039;-85
2021/03/28 12:56:59;;;;;;;16.88;4.13;;;;;;;;;;5114284;28;20046;-86
2021/03/28 12:59:36;;;;;;;10.18;3.17;;;;;;;;;;5114526;28;20058;-86
2021/03/28 13:02:20;;;;;;;8.27;2.92;;;;;;;;;;5114351;28;20122;-85
2021/03/28 13:04:54;;;;;;;9.80;3.42;;;;;;;;;;5114381;28;20035;-83
2021/03/28 13:07:40;;;;;;;11.02;3.00;;;;;;;;;;5097626;28;20047;-85
2021/03/28 13:10:07;;;;;;;13.23;3.78;;;;;;;;;;5097122;28;20039;-83
2021/03/28 13:12:33;;;;;;;18.02;4.25;;;;;;;;;;5114213;28;20042;-84
2021/03/28 13:15:12;;;;;;;15.52;3.53;;;;;;;;;;5114084;28;20393;-83
2021/03/28 13:17:38;;;;;;;8.75;2.70;;;;;;;;;;5114346;28;20043;-83
2021/03/28 13:20:12;;;;;;;12.05;3.55;;;;;;;;;;5097124;28;20478;-84
2021/03/28 13:22:41;;;;;;;10.20;3.33;;;;;;;;;;5114311;27;20037;-84
2021/03/28 13:25:16;;;;;;;13.63;3.10;;;;;;;;;;5117044;27;20035;-84
2021/03/28 13:27:43;;;;;;;12.00;2.95;;;;;;;;;;5118021;27;20042;-84
2021/03/28 13:30:17;;;;;;;9.55;3.25;;;;;;;;;;5118080;27;20031;-83
2021/03/28 13:32:44;;;;;;;9.55;2.85;;;;;;;;;;5118012;27;20415;-83
2021/03/28 13:35:28;;;;;;;13.77;3.03;;;;;;;;;;5100883;27;20122;-84
2021/03/28 13:37:55;;;;;;;8.60;3.00;;;;;;;;;;5136212;27;20046;-84
2021/03/28 13:40:39;;;;;;;9.20;2.97;;;;;;;;;;5118070;27;20042;-84
2021/03/28 13:43:11;;;;;;;10.32;3.20;;;;;;;;;;5117545;27;20035;-83
2021/03/28 13:45:38;;;;;;;14.07;3.15;;;;;;;;;;5117685;27;20051;-84
2021/03/28 13:48:07;;;;;;;14.07;3.00;;;;;;;;;;5117882;27;20080;-84
2021/03/28 13:50:54;;;;;;;12.30;3.45;;;;;;;;;;5117519;27;20043;-84
2021/03/28 13:53:21;;;;;;;10.48;3.97;;;;;;;;;;5117728;27;20474;-84
2021/03/28 13:56:26;;;;;;;11.60;2.78;;;;;;;;;;5100807;27;20071;-86
2021/03/28 13:59:01;;;;;;;11.27;2.55;;;;;;;;;;5032413;28;20045;-84
2021/03/28 14:01:31;;;;;;;12.20;3.08;;;;;;;;;;5015861;28;20056;-85
2021/03/28 14:04:14;;;;;;;9.45;2.65;;;;;;;;;;5056318;27;20054;-85
2021/03/28 14:06:40;;;;;;;;;;;;;;;;;;5117866;27;20035;-84
2021/03/28 14:09:12;;;;;;;14.73;3.40;;;;;;;;;;5135369;27;19927;-85
2021/03/28 14:11:47;;;;;;;11.73;2.85;;;;;;;;;;5116679;27;20035;-83
2021/03/28 14:14:21;;;;;;;9.52;2.80;;;;;;;;;;5134968;27;20088;-84
2021/03/28 14:16:47;;;;;;;12.13;2.80;;;;;;;;;;5117194;27;20076;-83
2021/03/28 14:19:21;;;;;;;9.90;2.63;;;;;;;;;;5116866;27;20470;-84
2021/03/28 14:21:47;;;;;;;11.63;3.10;;;;;;;;;;5117038;27;20043;-82
2021/03/28 14:24:16;;;;;;;13.50;2.88;;;;;;;;;;5135033;27;20035;-84
2021/03/28 14:26:45;;;;;;;11.05;3.15;;;;;;;;;;5135009;27;20050;-83
2021/03/28 14:29:22;;;;;;;12.73;2.75;;;;;;;;;;5116932;27;20035;-84
2021/03/28 14:31:48;;;;;;;11.65;2.72;;;;;;;;;;5099466;27;20039;-84
2021/03/28 14:34:22;;;;;;;17.10;3.25;;;;;;;;;;5116348;27;20039;-83
2021/03/28 14:37:06;;;;;;;11.00;2.53;;;;;;;;;;5116997;27;20066;-84
2021/03/28 14:39:32;;;;;;;;;;;;;;;;;;5100191;27;20104;-83
2021/03/28 14:42:12;;;;;;;10.85;2.85;;;;;;;;;;5134938;27;20392;-84
2021/03/28 14:44:58;;;;;;;9.20;2.58;;;;;;;;;;5099147;27;20122;-84
2021/03/28 14:47:24;;;;;;;12.52;2.58;;;;;;;;;;5134535;27;20043;-84
2021/03/28 14:50:03;;;;;;;10.38;2.47;;;;;;;;;;5116309;27;20043;-85
2021/03/28 14:52:32;;;;;;;12.00;2.60;;;;;;;;;;5098989;27;20035;-85
2021/03/28 14:54:58;;;;;;;11.15;2.47;;;;;;;;;;5099072;27;20043;-85
2021/03/28 14:57:31;;;;;;;10.40;2.45;;;;;;;;;;5134366;27;20038;-84
2021/03/28 14:59:57;;;;;;;;;;;;;;;;;;5099501;27;20031;-85
2021/03/28 15:02:44;;;;;;;8.93;2.65;;;;;;;;;;5112329;28;19919;-83
2021/03/28 15:05:21;;;;;;;11.52;2.10;;;;;;;;;;5112551;28;20035;-84
2021/03/28 15:07:49;;;;;;;7.35;2.25;;;;;;;;;;5095568;28;20501;-84
2021/03/28 15:10:24;;;;;;;11.10;2.25;;;;;;;;;;5095414;28;20104;-84
2021/03/28 15:12:52;;;;;;;11.23;2.17;;;;;;;;;;5095261;28;20479;-84
2021/03/28 15:15:25;;;;;;;12.68;2.88;;;;;;;;;;5112117;28;20035;-84
2021/03/28 15:17:52;;;;;;;18.90;3.13;;;;;;;;;;5112355;28;20036;-85
2021/03/28 15:20:21;;;;;;;14.35;2.60;;;;;;;;;;5112939;28;20032;-84
2021/03/28 15:22:49;;;;;;;15.75;3.10;;;;;;;;;;5113483;28;20036;-83
2021/03/28 15:25:16;;;;;;;9.02;2.40;;;;;;;;;;5128981;27;20031;-83